EDT,Max TemperatureF,Mean TemperatureF,Min TemperatureF,Max Dew PointF,MeanDew PointF,Min DewpointF,Max Humidity, Mean Humidity, Min Humidity, Max Sea Level PressureIn, Mean Sea Level PressureIn, Min Sea Level PressureIn, Max VisibilityMiles, Mean VisibilityMiles, Min VisibilityMiles, Max Wind SpeedMPH, Mean Wind SpeedMPH, Max Gust SpeedMPH,PrecipitationIn, CloudCover, Events, WindDirDegrees
2013-8-1,73,64,50,63,55,49,100,89,50,30.06,29.99,29.86,10,5,0,16,1,24,0.06,6,Fog-Rain,151
2013-8-2,78,67,57,63,61,52,100,87,43,29.87,29.82,29.76,10,7,2,9,0,20,0.10,6,Rain-Thunderstorm,229
2013-8-3,72,62,53,61,55,52,100,88,57,29.87,29.81,29.77,10,5,0,7,1,,0.29,6,Fog-Rain,65
2013-8-4,72,62,51,58,54,50,96,81,51,29.89,29.83,29.80,10,10,6,10,3,30,0.06,4,Rain-Thunderstorm,251
2013-8-5,69,56,45,54,47,37,94,72,34,30.08,29.97,29.89,10,10,10,12,2,22,0.01,5,Rain,294
2013-8-6,77,57,39,55,45,37,100,81,38,30.17,30.12,30.06,10,7,0,8,1,,0.00,3,Fog,186
2013-8-7,77,60,44,58,50,43,100,82,48,30.22,30.17,30.08,10,6,0,10,1,17,0.00,4,Fog,156
2013-8-8,82,71,62,70,64,56,100,88,58,30.07,30.03,29.99,10,6,1,8,2,,0.06,8,Rain,162
2013-8-9,73,68,64,70,66,64,100,97,87,30.03,29.91,29.77,10,4,0,8,1,,1.59,8,Fog-Rain-Thunderstorm,116
2013-8-10,73,62,48,64,57,46,100,82,41,30.04,29.85,29.78,10,5,0,12,2,21,0.00,3,Fog,309
2013-8-11,75,57,39,55,47,39,100,79,40,30.08,30.04,30.01,10,7,0,10,1,20,0.00,3,Fog,288
2013-8-12,78,62,48,58,52,46,100,80,40,30.04,29.99,29.94,10,7,0,9,1,,0.00,2,Fog,241
2013-8-13,69,59,50,64,55,48,100,95,81,29.94,29.83,29.70,10,5,0,5,0,,0.15,8,Fog-Rain,170
2013-8-14,71,62,54,63,57,48,100,87,53,29.92,29.71,29.67,10,7,1,9,1,,0.02,7,Rain,280
2013-8-15,71,56,42,54,47,42,100,71,44,30.05,30.01,29.94,10,10,10,9,2,16,0.00,2,,248
2013-8-16,77,62,48,58,53,48,100,73,42,30.22,30.17,30.13,10,10,8,5,1,,0.02,3,,333
2013-8-17,75,60,46,57,51,45,100,82,41,30.32,30.29,30.24,10,6,0,7,1,,0.01,3,Fog,310
2013-8-18,77,58,42,60,48,43,100,89,38,30.33,30.27,30.10,10,4,0,7,0,,0.00,3,Fog,230
2013-8-19,81,62,44,59,50,44,100,88,45,30.10,30.05,29.96,10,4,0,10,1,21,0.01,4,Fog,312
2013-8-20,82,65,48,63,54,48,100,83,36,30.12,30.07,30.01,10,6,0,9,1,17,0.00,2,Fog,302
2013-8-21,86,67,50,64,56,50,100,85,43,30.18,30.13,30.02,10,5,0,10,0,16,0.00,3,Fog,225
2013-8-22,84,66,51,67,58,52,100,85,49,30.03,29.94,29.81,10,5,0,7,1,16,0.05,5,Fog-Rain,290
2013-8-23,73,60,46,63,52,43,96,72,38,30.22,30.00,29.85,10,10,10,14,3,21,0.00,2,,326
2013-8-24,78,57,37,52,42,37,100,80,24,30.38,30.30,30.22,10,6,0,7,1,,0.00,2,Fog,308
2013-8-25,78,58,39,56,46,39,100,81,33,30.42,30.33,30.16,10,6,0,6,1,,0.00,2,Fog,313
2013-8-26,73,63,55,65,61,53,100,92,78,30.15,29.96,29.92,10,6,1,5,0,,0.07,6,Rain,297
2013-8-27,84,70,59,67,62,59,100,83,51,29.95,29.92,29.87,10,6,0,5,0,,0.01,3,Fog,230
2013-8-28,88,72,57,66,61,55,100,87,40,30.03,29.95,29.88,10,6,0,9,1,20,0.07,5,Fog-Rain-Thunderstorm,91
2013-8-29,73,65,57,63,60,55,100,90,66,30.11,30.06,30.01,10,6,0,9,1,,0.00,7,Fog,178
2013-8-30,82,70,60,65,62,59,100,83,56,30.03,29.90,29.80,10,9,1,14,2,18,0.46,5,Rain-Thunderstorm,30
2013-8-31,82,70,62,68,65,62,100,94,60,29.84,29.81,29.79,10,4,0,9,0,,0.05,7,Fog-Rain,111